Airfield :
LOGIN :

Register | Disclaimer

   EN    FR    IT 

 










Legend :    VFR   Marginal VFR   IFR   Intensive IFR   Very Intensive IFR
Visi :
Ceiling :
>= 8 km
>= 3000ft
5 to 8 km
1000 to 3000 ft
1500m to 5 km
500 to 1000 ft
800 to 1500m
200 to 500 ft
< 800m
< 200 ft
Symbols :   Thunderstorms  Fog  Heavy snow  Heavy precipitations  Wind > 20 kt
SIGMETs :     Misc.  Thunderstorms  Icing  Turbulence  Mountain Waves  Volcanic Ashes






- Airport Elevation : 200 ft


EBBL - Klein Brogel AB

CURRENT METAR :
  • 200955Z 06003KT 8000 FEW025 14/07 Q1018 BLU BLU TEMPO WHT

EXPIRED METARs :
  • 200925Z VRB02KT 6000 FEW022 13/07 Q1018 WHT WHT BECMG BLU
  • 200855Z VRB02KT 5000 BR FEW020 12/08 Q1018 WHT WHT BECMG BLU
  • 200839Z VRB02KT 5000 BR FEW005 12/08 Q1018 WHT WHT BECMG BLU
  • 200833Z 02003KT 4000 BR FEW003 11/08 Q1018 GRN GRN BECMG WHT
  • 200811Z VRB02KT 1600 SCT003 09/08 Q1018 YLO YLO BECMG GRN
  • 200755Z VRB02KT 1000 BKN002 08/08 Q1018 AMB AMB BECMG YLO
  • 200750Z VRB01KT 0500 BKN002 07/07 Q1018 RED AMB BECMG YLO
  • 200725Z VRB01KT 0100 BKN001 06/06 Q1018 RED RED BECMG AMB
  • 200655Z VRB01KT 0050 BKN001 05/05 Q1018 RED RED BECMG AMB

TAF TAF EBBL
Valid from the 20 at 10:00 until the 20 at 19:00 UTC


200841Z 2010/2019 VRB03KT 9999 FEW030
PROB30
TEMPO 2010/2011 6000
TEMPO 2012/2016 01005KT BKN040



MET'MAP, your aeronautical weather chart ! - Copyright ORBIFLY December 2007 - Disclaimer

ORBIFLY MET'MAP TEAM :

Programming & Development : Alexandra Zaïnal
Concept & original design : Baudouin d'Aumeries
Assistance for programming : Marc-Olivier Méhu
Technical & hardware support : Manuel Goepfert

Contact : metmap@orbifly.com




SOURCES & CREDITS :

   NOAA